RYR250 LEZL-LEBB
Flight info
| Callsign | RYR250 |
|---|---|
| Flight time | N/A |
| Altitude | 34000 |
| Route | HIJ DCT PARKA DCT TLD DCT SIE DCT EDIGO DCT DGO |
| Aircraft | B38M/M-SDE1FGHILORVWXY/HB1 |
Departure
| Time | 2026-05-06 19:55 |
|---|---|
| Airport | Seville Airport (LEZL) |
Arrival
| Time | N/A |
|---|---|
| Airport | Bilbao Airport (LEBB) |
| Time | Latitude | Longitude | Altitude | Speed | Heading |
|---|---|---|---|---|---|
| 2026-05-06 19:28 | 37.42106 | -5.90125 | 96 ft | 0 kts | 359° |
| 2026-05-06 19:35 | 37.42107 | -5.90125 | 96 ft | 0 kts | 359° |
| 2026-05-06 19:45 | 37.42091 | -5.90125 | 96 ft | 4 kts | 1° |
| 2026-05-06 19:45 | 37.42064 | -5.90128 | 95 ft | 4 kts | 19° |
| 2026-05-06 19:45 | 37.42047 | -5.90142 | 95 ft | 3 kts | 84° |
| 2026-05-06 19:46 | 37.42046 | -5.90147 | 95 ft | 0 kts | 89° |
| 2026-05-06 19:48 | 37.42047 | -5.90133 | 95 ft | 4 kts | 89° |
| 2026-05-06 19:48 | 37.42047 | -5.90079 | 96 ft | 9 kts | 89° |
| 2026-05-06 19:48 | 37.42051 | -5.89983 | 96 ft | 13 kts | 86° |
| 2026-05-06 19:49 | 37.42006 | -5.89882 | 94 ft | 16 kts | 140° |
| 2026-05-06 19:49 | 37.41981 | -5.89746 | 95 ft | 18 kts | 89° |
| 2026-05-06 19:49 | 37.41982 | -5.89571 | 93 ft | 22 kts | 90° |
| 2026-05-06 19:49 | 37.41982 | -5.89358 | 94 ft | 26 kts | 90° |
| 2026-05-06 19:50 | 37.41981 | -5.89128 | 98 ft | 27 kts | 90° |
| 2026-05-06 19:50 | 37.41983 | -5.88882 | 102 ft | 29 kts | 89° |
| 2026-05-06 19:50 | 37.41984 | -5.88642 | 109 ft | 26 kts | 90° |
| 2026-05-06 19:50 | 37.41985 | -5.88412 | 108 ft | 26 kts | 89° |
| 2026-05-06 19:51 | 37.41986 | -5.88187 | 110 ft | 25 kts | 90° |
| 2026-05-06 19:51 | 37.41986 | -5.87957 | 106 ft | 27 kts | 89° |
| 2026-05-06 19:51 | 37.41987 | -5.87725 | 107 ft | 26 kts | 90° |
| 2026-05-06 19:51 | 37.41973 | -5.87502 | 107 ft | 25 kts | 114° |
| 2026-05-06 19:52 | 37.41926 | -5.87438 | 107 ft | 0 kts | 153° |
| 2026-05-06 19:52 | 37.41925 | -5.87438 | 107 ft | 0 kts | 153° |
| 2026-05-06 19:52 | 37.41915 | -5.87431 | 108 ft | 3 kts | 155° |
| 2026-05-06 19:52 | 37.41883 | -5.87426 | 108 ft | 7 kts | 183° |
| 2026-05-06 19:53 | 37.41827 | -5.87469 | 110 ft | 12 kts | 230° |
| 2026-05-06 19:53 | 37.41800 | -5.87562 | 109 ft | 3 kts | 269° |
| 2026-05-06 19:53 | 37.41800 | -5.87571 | 109 ft | 2 kts | 268° |
| 2026-05-06 19:53 | 37.41799 | -5.87599 | 108 ft | 4 kts | 269° |
| 2026-05-06 19:54 | 37.41799 | -5.87645 | 107 ft | 7 kts | 271° |
| 2026-05-06 19:54 | 37.41799 | -5.87835 | 108 ft | 53 kts | 269° |
| 2026-05-06 19:54 | 37.41796 | -5.88609 | 106 ft | 122 kts | 270° |
| 2026-05-06 19:54 | 37.41777 | -5.89911 | 133 ft | 172 kts | 268° |
| 2026-05-06 19:55 | 37.41776 | -5.91528 | 577 ft | 194 kts | 269° |
| 2026-05-06 19:55 | 37.42155 | -5.93103 | 1571 ft | 189 kts | 302° |
| 2026-05-06 19:55 | 37.43144 | -5.94232 | 2103 ft | 194 kts | 319° |
| 2026-05-06 19:55 | 37.44214 | -5.95378 | 2102 ft | 216 kts | 313° |
| 2026-05-06 19:56 | 37.45386 | -5.96812 | 2197 ft | 247 kts | 314° |
| 2026-05-06 19:56 | 37.46673 | -5.98325 | 2748 ft | 258 kts | 315° |
| 2026-05-06 19:56 | 37.48003 | -5.99849 | 3384 ft | 265 kts | 316° |
| 2026-05-06 19:56 | 37.49376 | -6.01430 | 4104 ft | 270 kts | 316° |
| 2026-05-06 19:57 | 37.50769 | -6.03047 | 4826 ft | 274 kts | 317° |
| 2026-05-06 19:57 | 37.52178 | -6.04684 | 5534 ft | 277 kts | 318° |
| 2026-05-06 19:57 | 37.53603 | -6.06337 | 6249 ft | 279 kts | 319° |
| 2026-05-06 19:57 | 37.55040 | -6.08003 | 6911 ft | 282 kts | 318° |
| 2026-05-06 19:58 | 37.56489 | -6.09679 | 7612 ft | 283 kts | 319° |
| 2026-05-06 19:58 | 37.58188 | -6.10910 | 8268 ft | 284 kts | 346° |
| 2026-05-06 19:58 | 37.60151 | -6.11046 | 8901 ft | 285 kts | 14° |
| 2026-05-06 19:58 | 37.61951 | -6.10055 | 9527 ft | 284 kts | 39° |
| 2026-05-06 19:59 | 37.63481 | -6.08450 | 10096 ft | 288 kts | 43° |
| 2026-05-06 19:59 | 37.65001 | -6.06716 | 10434 ft | 301 kts | 43° |